sensor_id;sensor_type;location;lat;lon;timestamp;temperature;humidity
70089;HTU21D;57460;47.134;19.888;2023-11-18T00:01:24;7.17;61.96
70089;HTU21D;57460;47.134;19.888;2023-11-18T00:03:50;7.16;61.79
70089;HTU21D;57460;47.134;19.888;2023-11-18T00:06:16;7.22;61.73
70089;HTU21D;57460;47.134;19.888;2023-11-18T00:08:42;7.39;60.64
70089;HTU21D;57460;47.134;19.888;2023-11-18T00:11:09;7.32;60.80
70089;HTU21D;57460;47.134;19.888;2023-11-18T00:13:37;7.38;60.55
70089;HTU21D;57460;47.134;19.888;2023-11-18T00:16:06;7.14;61.66
70089;HTU21D;57460;47.134;19.888;2023-11-18T00:18:32;7.27;61.44
70089;HTU21D;57460;47.134;19.888;2023-11-18T00:20:58;7.28;61.36
70089;HTU21D;57460;47.134;19.888;2023-11-18T00:23:24;7.23;61.28
70089;HTU21D;57460;47.134;19.888;2023-11-18T00:25:52;7.30;60.96
70089;HTU21D;57460;47.134;19.888;2023-11-18T00:28:18;7.38;60.54
70089;HTU21D;57460;47.134;19.888;2023-11-18T00:30:45;7.31;61.22
70089;HTU21D;57460;47.134;19.888;2023-11-18T00:33:10;7.19;60.78
70089;HTU21D;57460;47.134;19.888;2023-11-18T00:35:36;7.30;60.66
70089;HTU21D;57460;47.134;19.888;2023-11-18T00:38:02;7.13;61.36
70089;HTU21D;57460;47.134;19.888;2023-11-18T00:40:28;7.15;61.35
70089;HTU21D;57460;47.134;19.888;2023-11-18T00:42:56;7.25;60.97
70089;HTU21D;57460;47.134;19.888;2023-11-18T00:45:22;7.29;60.19
70089;HTU21D;57460;47.134;19.888;2023-11-18T00:47:47;7.17;61.05
70089;HTU21D;57460;47.134;19.888;2023-11-18T00:50:14;7.22;60.76
70089;HTU21D;57460;47.134;19.888;2023-11-18T00:52:40;7.28;60.60
70089;HTU21D;57460;47.134;19.888;2023-11-18T00:55:08;7.20;60.93
70089;HTU21D;57460;47.134;19.888;2023-11-18T00:57:35;7.19;61.21
70089;HTU21D;57460;47.134;19.888;2023-11-18T01:00:01;7.26;60.91
70089;HTU21D;57460;47.134;19.888;2023-11-18T01:02:26;7.08;61.75
70089;HTU21D;57460;47.134;19.888;2023-11-18T01:04:53;7.17;61.60
70089;HTU21D;57460;47.134;19.888;2023-11-18T01:07:19;7.15;61.46
70089;HTU21D;57460;47.134;19.888;2023-11-18T01:09:44;7.05;61.89
70089;HTU21D;57460;47.134;19.888;2023-11-18T01:12:11;7.10;62.17
70089;HTU21D;57460;47.134;19.888;2023-11-18T01:14:37;7.13;61.02
70089;HTU21D;57460;47.134;19.888;2023-11-18T01:17:04;7.12;61.96
70089;HTU21D;57460;47.134;19.888;2023-11-18T01:19:30;7.05;61.96
70089;HTU21D;57460;47.134;19.888;2023-11-18T01:21:56;7.12;61.93
70089;HTU21D;57460;47.134;19.888;2023-11-18T01:24:22;7.04;62.00
70089;HTU21D;57460;47.134;19.888;2023-11-18T01:26:47;7.11;61.83
70089;HTU21D;57460;47.134;19.888;2023-11-18T01:29:13;7.12;61.70
70089;HTU21D;57460;47.134;19.888;2023-11-18T01:31:40;7.04;61.96
70089;HTU21D;57460;47.134;19.888;2023-11-18T01:34:09;7.09;61.57
70089;HTU21D;57460;47.134;19.888;2023-11-18T01:36:35;7.08;61.12
70089;HTU21D;57460;47.134;19.888;2023-11-18T01:39:00;7.03;61.76
70089;HTU21D;57460;47.134;19.888;2023-11-18T01:41:26;6.96;62.12
70089;HTU21D;57460;47.134;19.888;2023-11-18T01:43:52;6.98;62.41
70089;HTU21D;57460;47.134;19.888;2023-11-18T01:46:19;7.02;62.18
70089;HTU21D;57460;47.134;19.888;2023-11-18T01:48:47;7.11;61.81
70089;HTU21D;57460;47.134;19.888;2023-11-18T01:51:13;6.88;62.53
70089;HTU21D;57460;47.134;19.888;2023-11-18T01:53:42;6.93;62.45
70089;HTU21D;57460;47.134;19.888;2023-11-18T01:56:09;6.83;62.88
70089;HTU21D;57460;47.134;19.888;2023-11-18T01:58:37;7.05;61.82
70089;HTU21D;57460;47.134;19.888;2023-11-18T02:01:03;6.85;62.74
70089;HTU21D;57460;47.134;19.888;2023-11-18T02:03:36;6.83;62.89
70089;HTU21D;57460;47.134;19.888;2023-11-18T02:06:05;6.81;63.10
70089;HTU21D;57460;47.134;19.888;2023-11-18T02:08:33;6.71;63.23
70089;HTU21D;57460;47.134;19.888;2023-11-18T02:11:20;6.68;63.27
70089;HTU21D;57460;47.134;19.888;2023-11-18T02:13:53;6.68;63.39
70089;HTU21D;57460;47.134;19.888;2023-11-18T02:16:22;6.71;63.25
70089;HTU21D;57460;47.134;19.888;2023-11-18T02:18:49;6.57;63.76
70089;HTU21D;57460;47.134;19.888;2023-11-18T02:21:17;6.57;63.19
70089;HTU21D;57460;47.134;19.888;2023-11-18T02:23:43;6.61;63.33
70089;HTU21D;57460;47.134;19.888;2023-11-18T02:26:09;6.61;63.07
70089;HTU21D;57460;47.134;19.888;2023-11-18T02:28:35;6.37;64.11
70089;HTU21D;57460;47.134;19.888;2023-11-18T02:31:10;6.42;63.73
70089;HTU21D;57460;47.134;19.888;2023-11-18T02:33:56;6.45;63.79
70089;HTU21D;57460;47.134;19.888;2023-11-18T02:36:42;6.43;64.16
70089;HTU21D;57460;47.134;19.888;2023-11-18T02:39:39;6.50;63.55
70089;HTU21D;57460;47.134;19.888;2023-11-18T02:42:07;6.54;63.19
70089;HTU21D;57460;47.134;19.888;2023-11-18T02:44:37;6.31;64.01
70089;HTU21D;57460;47.134;19.888;2023-11-18T02:47:04;6.38;64.01
70089;HTU21D;57460;47.134;19.888;2023-11-18T02:49:36;6.54;63.55
70089;HTU21D;57460;47.134;19.888;2023-11-18T02:52:02;6.27;64.57
70089;HTU21D;57460;47.134;19.888;2023-11-18T02:54:28;6.48;63.78
70089;HTU21D;57460;47.134;19.888;2023-11-18T02:56:54;6.20;64.86
70089;HTU21D;57460;47.134;19.888;2023-11-18T02:59:21;6.28;64.28
70089;HTU21D;57460;47.134;19.888;2023-11-18T03:01:47;6.19;65.08
70089;HTU21D;57460;47.134;19.888;2023-11-18T03:04:13;6.46;64.03
70089;HTU21D;57460;47.134;19.888;2023-11-18T03:06:40;6.41;64.43
70089;HTU21D;57460;47.134;19.888;2023-11-18T03:09:07;6.23;64.76
70089;HTU21D;57460;47.134;19.888;2023-11-18T03:11:34;6.27;64.80
70089;HTU21D;57460;47.134;19.888;2023-11-18T03:14:00;6.29;64.60
70089;HTU21D;57460;47.134;19.888;2023-11-18T03:16:25;6.36;63.98
70089;HTU21D;57460;47.134;19.888;2023-11-18T03:18:51;6.39;64.24
70089;HTU21D;57460;47.134;19.888;2023-11-18T03:21:17;6.14;65.01
70089;HTU21D;57460;47.134;19.888;2023-11-18T03:23:45;6.23;64.67
70089;HTU21D;57460;47.134;19.888;2023-11-18T03:26:10;6.30;64.66
70089;HTU21D;57460;47.134;19.888;2023-11-18T03:28:37;6.15;64.76
70089;HTU21D;57460;47.134;19.888;2023-11-18T03:31:06;6.42;64.18
70089;HTU21D;57460;47.134;19.888;2023-11-18T03:33:32;6.36;64.17
70089;HTU21D;57460;47.134;19.888;2023-11-18T03:35:57;6.17;65.07
70089;HTU21D;57460;47.134;19.888;2023-11-18T03:38:23;6.04;65.82
70089;HTU21D;57460;47.134;19.888;2023-11-18T03:40:50;6.00;65.79
70089;HTU21D;57460;47.134;19.888;2023-11-18T03:43:18;6.19;64.97
70089;HTU21D;57460;47.134;19.888;2023-11-18T03:45:44;6.28;64.54
70089;HTU21D;57460;47.134;19.888;2023-11-18T03:48:09;6.30;64.78
70089;HTU21D;57460;47.134;19.888;2023-11-18T03:50:40;6.30;64.40
70089;HTU21D;57460;47.134;19.888;2023-11-18T03:53:06;6.31;64.65
70089;HTU21D;57460;47.134;19.888;2023-11-18T03:55:32;6.26;64.85
70089;HTU21D;57460;47.134;19.888;2023-11-18T03:57:59;6.00;65.47
70089;HTU21D;57460;47.134;19.888;2023-11-18T04:00:24;6.12;65.46
70089;HTU21D;57460;47.134;19.888;2023-11-18T04:02:56;6.08;65.72
70089;HTU21D;57460;47.134;19.888;2023-11-18T04:05:22;6.19;65.32
70089;HTU21D;57460;47.134;19.888;2023-11-18T04:07:48;6.13;65.46
70089;HTU21D;57460;47.134;19.888;2023-11-18T04:10:14;6.07;65.33
70089;HTU21D;57460;47.134;19.888;2023-11-18T04:12:40;6.07;65.80
70089;HTU21D;57460;47.134;19.888;2023-11-18T04:15:06;6.29;64.68
70089;HTU21D;57460;47.134;19.888;2023-11-18T04:17:33;6.27;64.99
70089;HTU21D;57460;47.134;19.888;2023-11-18T04:19:59;6.13;65.38
70089;HTU21D;57460;47.134;19.888;2023-11-18T04:22:25;6.17;64.95
70089;HTU21D;57460;47.134;19.888;2023-11-18T04:24:53;6.27;64.92
70089;HTU21D;57460;47.134;19.888;2023-11-18T04:27:19;6.13;65.19
70089;HTU21D;57460;47.134;19.888;2023-11-18T04:29:44;6.24;64.98
70089;HTU21D;57460;47.134;19.888;2023-11-18T04:32:10;6.39;64.07
70089;HTU21D;57460;47.134;19.888;2023-11-18T04:34:36;6.17;65.24
70089;HTU21D;57460;47.134;19.888;2023-11-18T04:37:03;6.29;64.60
70089;HTU21D;57460;47.134;19.888;2023-11-18T04:39:31;6.19;64.98
70089;HTU21D;57460;47.134;19.888;2023-11-18T04:41:57;6.16;65.19
70089;HTU21D;57460;47.134;19.888;2023-11-18T04:44:23;6.08;65.40
70089;HTU21D;57460;47.134;19.888;2023-11-18T04:46:49;6.13;65.21
70089;HTU21D;57460;47.134;19.888;2023-11-18T04:49:16;6.27;64.97
70089;HTU21D;57460;47.134;19.888;2023-11-18T04:51:41;6.20;65.50
70089;HTU21D;57460;47.134;19.888;2023-11-18T04:54:07;6.22;65.30
70089;HTU21D;57460;47.134;19.888;2023-11-18T04:56:36;6.24;64.92
70089;HTU21D;57460;47.134;19.888;2023-11-18T04:59:03;6.24;65.38
70089;HTU21D;57460;47.134;19.888;2023-11-18T05:01:31;6.20;65.27
70089;HTU21D;57460;47.134;19.888;2023-11-18T05:03:57;6.16;65.48
70089;HTU21D;57460;47.134;19.888;2023-11-18T05:06:26;6.31;65.21
70089;HTU21D;57460;47.134;19.888;2023-11-18T05:08:52;6.26;65.41
70089;HTU21D;57460;47.134;19.888;2023-11-18T05:11:18;6.12;65.69
70089;HTU21D;57460;47.134;19.888;2023-11-18T05:13:44;6.39;64.95
70089;HTU21D;57460;47.134;19.888;2023-11-18T05:16:09;6.37;64.95
70089;HTU21D;57460;47.134;19.888;2023-11-18T05:18:39;6.19;65.56
70089;HTU21D;57460;47.134;19.888;2023-11-18T05:21:06;6.28;65.18
70089;HTU21D;57460;47.134;19.888;2023-11-18T05:23:35;6.33;65.31
70089;HTU21D;57460;47.134;19.888;2023-11-18T05:26:01;6.16;65.72
70089;HTU21D;57460;47.134;19.888;2023-11-18T05:28:30;6.19;65.87
70089;HTU21D;57460;47.134;19.888;2023-11-18T05:30:56;6.21;65.95
70089;HTU21D;57460;47.134;19.888;2023-11-18T05:33:24;6.11;66.46
70089;HTU21D;57460;47.134;19.888;2023-11-18T05:35:50;6.13;66.47
70089;HTU21D;57460;47.134;19.888;2023-11-18T05:38:19;6.16;66.10
70089;HTU21D;57460;47.134;19.888;2023-11-18T05:40:50;6.22;66.12
70089;HTU21D;57460;47.134;19.888;2023-11-18T05:43:29;6.46;65.34
70089;HTU21D;57460;47.134;19.888;2023-11-18T05:46:04;6.30;65.97
70089;HTU21D;57460;47.134;19.888;2023-11-18T05:48:50;6.43;65.33
70089;HTU21D;57460;47.134;19.888;2023-11-18T05:51:25;6.39;65.53
70089;HTU21D;57460;47.134;19.888;2023-11-18T05:53:51;6.34;65.80
70089;HTU21D;57460;47.134;19.888;2023-11-18T05:56:17;6.13;66.46
70089;HTU21D;57460;47.134;19.888;2023-11-18T05:58:44;6.25;66.32
70089;HTU21D;57460;47.134;19.888;2023-11-18T06:01:09;6.37;65.85
70089;HTU21D;57460;47.134;19.888;2023-11-18T06:03:37;6.38;65.83
70089;HTU21D;57460;47.134;19.888;2023-11-18T06:06:12;6.38;65.91
70089;HTU21D;57460;47.134;19.888;2023-11-18T06:08:40;6.35;66.08
70089;HTU21D;57460;47.134;19.888;2023-11-18T06:11:10;6.33;66.27
70089;HTU21D;57460;47.134;19.888;2023-11-18T06:13:50;6.37;65.91
70089;HTU21D;57460;47.134;19.888;2023-11-18T06:16:23;6.43;65.88
70089;HTU21D;57460;47.134;19.888;2023-11-18T06:18:52;6.35;66.33
70089;HTU21D;57460;47.134;19.888;2023-11-18T06:21:20;6.42;65.82
70089;HTU21D;57460;47.134;19.888;2023-11-18T06:23:48;6.51;65.66
70089;HTU21D;57460;47.134;19.888;2023-11-18T06:26:15;6.50;65.05
70089;HTU21D;57460;47.134;19.888;2023-11-18T06:28:43;6.71;64.58
70089;HTU21D;57460;47.134;19.888;2023-11-18T06:31:09;6.52;65.31
70089;HTU21D;57460;47.134;19.888;2023-11-18T06:33:42;6.64;65.02
70089;HTU21D;57460;47.134;19.888;2023-11-18T06:36:09;6.66;65.04
70089;HTU21D;57460;47.134;19.888;2023-11-18T06:38:37;6.61;65.05
70089;HTU21D;57460;47.134;19.888;2023-11-18T06:41:03;6.75;64.87
70089;HTU21D;57460;47.134;19.888;2023-11-18T06:43:31;6.72;65.04
70089;HTU21D;57460;47.134;19.888;2023-11-18T06:46:14;6.87;64.41
70089;HTU21D;57460;47.134;19.888;2023-11-18T06:48:40;6.86;64.48
70089;HTU21D;57460;47.134;19.888;2023-11-18T06:51:06;7.02;64.11
70089;HTU21D;57460;47.134;19.888;2023-11-18T06:53:34;6.98;64.01
70089;HTU21D;57460;47.134;19.888;2023-11-18T06:56:00;7.00;64.18
70089;HTU21D;57460;47.134;19.888;2023-11-18T06:58:25;7.05;64.11
70089;HTU21D;57460;47.134;19.888;2023-11-18T07:00:52;7.14;64.08
70089;HTU21D;57460;47.134;19.888;2023-11-18T07:03:18;7.30;62.96
70089;HTU21D;57460;47.134;19.888;2023-11-18T07:05:43;7.19;63.97
70089;HTU21D;57460;47.134;19.888;2023-11-18T07:08:10;7.27;63.51
70089;HTU21D;57460;47.134;19.888;2023-11-18T07:10:35;7.33;63.62
70089;HTU21D;57460;47.134;19.888;2023-11-18T07:13:03;7.19;64.42
70089;HTU21D;57460;47.134;19.888;2023-11-18T07:15:29;7.32;63.89
70089;HTU21D;57460;47.134;19.888;2023-11-18T07:17:55;7.34;64.01
70089;HTU21D;57460;47.134;19.888;2023-11-18T07:20:20;7.53;63.53
70089;HTU21D;57460;47.134;19.888;2023-11-18T07:22:47;7.60;63.15
70089;HTU21D;57460;47.134;19.888;2023-11-18T07:25:12;7.71;63.03
70089;HTU21D;57460;47.134;19.888;2023-11-18T07:27:38;7.76;62.70
70089;HTU21D;57460;47.134;19.888;2023-11-18T07:30:04;7.71;62.93
70089;HTU21D;57460;47.134;19.888;2023-11-18T07:32:32;7.68;63.44
70089;HTU21D;57460;47.134;19.888;2023-11-18T07:34:59;7.87;62.47
70089;HTU21D;57460;47.134;19.888;2023-11-18T07:37:24;7.79;62.66
70089;HTU21D;57460;47.134;19.888;2023-11-18T07:39:52;7.99;62.26
70089;HTU21D;57460;47.134;19.888;2023-11-18T07:42:20;7.98;61.47
70089;HTU21D;57460;47.134;19.888;2023-11-18T07:44:46;7.74;63.33
70089;HTU21D;57460;47.134;19.888;2023-11-18T07:47:13;7.88;63.14
70089;HTU21D;57460;47.134;19.888;2023-11-18T07:49:41;8.02;62.60
70089;HTU21D;57460;47.134;19.888;2023-11-18T07:52:07;8.11;61.75
70089;HTU21D;57460;47.134;19.888;2023-11-18T07:54:32;8.23;61.25
70089;HTU21D;57460;47.134;19.888;2023-11-18T07:56:59;8.19;61.68
70089;HTU21D;57460;47.134;19.888;2023-11-18T07:59:25;8.32;61.15
70089;HTU21D;57460;47.134;19.888;2023-11-18T08:01:51;8.37;61.16
70089;HTU21D;57460;47.134;19.888;2023-11-18T08:04:18;8.45;60.76
70089;HTU21D;57460;47.134;19.888;2023-11-18T08:06:46;8.62;59.62
70089;HTU21D;57460;47.134;19.888;2023-11-18T08:09:13;8.45;60.19
70089;HTU21D;57460;47.134;19.888;2023-11-18T08:11:40;8.56;60.40
70089;HTU21D;57460;47.134;19.888;2023-11-18T08:14:07;8.50;60.99
70089;HTU21D;57460;47.134;19.888;2023-11-18T08:16:33;8.67;59.80
70089;HTU21D;57460;47.134;19.888;2023-11-18T08:19:00;8.78;57.75
70089;HTU21D;57460;47.134;19.888;2023-11-18T08:21:28;8.81;59.53
70089;HTU21D;57460;47.134;19.888;2023-11-18T08:23:54;8.90;59.00
70089;HTU21D;57460;47.134;19.888;2023-11-18T08:26:19;9.10;58.38
70089;HTU21D;57460;47.134;19.888;2023-11-18T08:28:45;9.20;57.89
70089;HTU21D;57460;47.134;19.888;2023-11-18T08:31:13;9.09;58.67
70089;HTU21D;57460;47.134;19.888;2023-11-18T08:33:46;9.16;58.64
70089;HTU21D;57460;47.134;19.888;2023-11-18T08:36:11;9.25;58.57
70089;HTU21D;57460;47.134;19.888;2023-11-18T08:38:38;9.33;57.76
70089;HTU21D;57460;47.134;19.888;2023-11-18T08:41:04;9.11;58.31
70089;HTU21D;57460;47.134;19.888;2023-11-18T08:43:34;9.25;58.43
70089;HTU21D;57460;47.134;19.888;2023-11-18T08:46:01;9.48;57.27
70089;HTU21D;57460;47.134;19.888;2023-11-18T08:48:26;9.56;56.68
70089;HTU21D;57460;47.134;19.888;2023-11-18T08:50:53;9.30;57.77
70089;HTU21D;57460;47.134;19.888;2023-11-18T08:53:19;9.39;58.43
70089;HTU21D;57460;47.134;19.888;2023-11-18T08:55:51;9.72;56.72
70089;HTU21D;57460;47.134;19.888;2023-11-18T08:58:19;9.70;56.92
70089;HTU21D;57460;47.134;19.888;2023-11-18T09:00:52;9.55;57.90
70089;HTU21D;57460;47.134;19.888;2023-11-18T09:03:26;9.84;57.16
70089;HTU21D;57460;47.134;19.888;2023-11-18T09:06:03;9.91;56.72
70089;HTU21D;57460;47.134;19.888;2023-11-18T09:08:35;9.86;56.87
70089;HTU21D;57460;47.134;19.888;2023-11-18T09:11:10;10.43;54.04
70089;HTU21D;57460;47.134;19.888;2023-11-18T09:13:37;10.48;54.65
70089;HTU21D;57460;47.134;19.888;2023-11-18T09:16:05;10.69;54.11
70089;HTU21D;57460;47.134;19.888;2023-11-18T09:18:39;10.93;53.95
70089;HTU21D;57460;47.134;19.888;2023-11-18T09:21:06;11.38;52.59
70089;HTU21D;57460;47.134;19.888;2023-11-18T09:23:34;11.34;51.79
70089;HTU21D;57460;47.134;19.888;2023-11-18T09:26:01;11.45;50.95
70089;HTU21D;57460;47.134;19.888;2023-11-18T09:28:27;11.39;51.82
70089;HTU21D;57460;47.134;19.888;2023-11-18T09:30:57;11.23;51.50
70089;HTU21D;57460;47.134;19.888;2023-11-18T09:33:27;11.02;52.31
70089;HTU21D;57460;47.134;19.888;2023-11-18T09:36:07;10.87;52.08
70089;HTU21D;57460;47.134;19.888;2023-11-18T09:38:38;10.75;52.31
70089;HTU21D;57460;47.134;19.888;2023-11-18T09:41:10;10.70;52.89
70089;HTU21D;57460;47.134;19.888;2023-11-18T09:43:43;11.01;51.06
70089;HTU21D;57460;47.134;19.888;2023-11-18T09:46:17;10.86;51.72
70089;HTU21D;57460;47.134;19.888;2023-11-18T09:51:23;10.50;53.30
70089;HTU21D;57460;47.134;19.888;2023-11-18T09:54:05;10.96;51.72
70089;HTU21D;57460;47.134;19.888;2023-11-18T09:59:29;11.08;50.54
70089;HTU21D;57460;47.134;19.888;2023-11-18T10:02:02;11.24;50.23
70089;HTU21D;57460;47.134;19.888;2023-11-18T10:04:30;11.26;50.44
70089;HTU21D;57460;47.134;19.888;2023-11-18T10:06:57;11.43;50.41
70089;HTU21D;57460;47.134;19.888;2023-11-18T10:09:24;11.87;49.80
70089;HTU21D;57460;47.134;19.888;2023-11-18T10:12:09;12.50;47.68
70089;HTU21D;57460;47.134;19.888;2023-11-18T10:14:42;12.53;46.41
70089;HTU21D;57460;47.134;19.888;2023-11-18T10:17:09;12.59;46.49
70089;HTU21D;57460;47.134;19.888;2023-11-18T10:19:57;12.47;46.90
70089;HTU21D;57460;47.134;19.888;2023-11-18T10:22:29;12.21;46.72
70089;HTU21D;57460;47.134;19.888;2023-11-18T10:24:57;11.87;48.04
70089;HTU21D;57460;47.134;19.888;2023-11-18T10:27:25;11.81;48.18
70089;HTU21D;57460;47.134;19.888;2023-11-18T10:29:58;11.90;48.34
70089;HTU21D;57460;47.134;19.888;2023-11-18T10:32:28;11.85;48.11
70089;HTU21D;57460;47.134;19.888;2023-11-18T10:34:58;12.07;47.22
70089;HTU21D;57460;47.134;19.888;2023-11-18T10:37:35;12.37;47.60
70089;HTU21D;57460;47.134;19.888;2023-11-18T10:40:04;12.11;47.38
70089;HTU21D;57460;47.134;19.888;2023-11-18T10:42:31;11.53;48.08
70089;HTU21D;57460;47.134;19.888;2023-11-18T10:44:58;11.20;50.77
70089;HTU21D;57460;47.134;19.888;2023-11-18T10:47:28;11.19;50.50
70089;HTU21D;57460;47.134;19.888;2023-11-18T10:49:57;11.01;51.04
70089;HTU21D;57460;47.134;19.888;2023-11-18T10:52:27;11.18;48.76
70089;HTU21D;57460;47.134;19.888;2023-11-18T10:55:01;10.88;50.43
70089;HTU21D;57460;47.134;19.888;2023-11-18T10:57:32;11.10;51.09
70089;HTU21D;57460;47.134;19.888;2023-11-18T11:00:03;11.03;50.30
70089;HTU21D;57460;47.134;19.888;2023-11-18T11:02:39;10.97;51.52
70089;HTU21D;57460;47.134;19.888;2023-11-18T11:05:10;11.12;51.30
70089;HTU21D;57460;47.134;19.888;2023-11-18T11:07:43;11.08;51.33
70089;HTU21D;57460;47.134;19.888;2023-11-18T11:10:14;11.15;50.50
70089;HTU21D;57460;47.134;19.888;2023-11-18T11:12:50;11.08;51.82
70089;HTU21D;57460;47.134;19.888;2023-11-18T11:15:26;11.32;50.88
70089;HTU21D;57460;47.134;19.888;2023-11-18T11:18:00;11.15;51.41
70089;HTU21D;57460;47.134;19.888;2023-11-18T11:20:39;11.48;49.28
70089;HTU21D;57460;47.134;19.888;2023-11-18T11:28:55;10.81;50.67
70089;HTU21D;57460;47.134;19.888;2023-11-18T11:31:34;10.60;52.01
70089;HTU21D;57460;47.134;19.888;2023-11-18T11:34:06;10.71;51.51
70089;HTU21D;57460;47.134;19.888;2023-11-18T11:36:44;10.82;50.95
70089;HTU21D;57460;47.134;19.888;2023-11-18T11:39:16;10.70;51.55
70089;HTU21D;57460;47.134;19.888;2023-11-18T11:41:59;10.62;52.24
70089;HTU21D;57460;47.134;19.888;2023-11-18T11:44:30;10.66;51.81
70089;HTU21D;57460;47.134;19.888;2023-11-18T11:46:59;10.66;51.66
70089;HTU21D;57460;47.134;19.888;2023-11-18T11:49:29;10.55;51.91
70089;HTU21D;57460;47.134;19.888;2023-11-18T11:54:45;10.45;52.59
70089;HTU21D;57460;47.134;19.888;2023-11-18T11:57:13;10.66;51.57
70089;HTU21D;57460;47.134;19.888;2023-11-18T12:02:15;10.40;52.82
70089;HTU21D;57460;47.134;19.888;2023-11-18T12:04:47;10.50;52.65
70089;HTU21D;57460;47.134;19.888;2023-11-18T12:07:35;10.54;52.25
70089;HTU21D;57460;47.134;19.888;2023-11-18T12:10:12;10.43;52.34
70089;HTU21D;57460;47.134;19.888;2023-11-18T12:12:46;10.51;51.78
70089;HTU21D;57460;47.134;19.888;2023-11-18T12:15:53;10.52;52.21
70089;HTU21D;57460;47.134;19.888;2023-11-18T12:18:39;10.49;51.75
70089;HTU21D;57460;47.134;19.888;2023-11-18T12:21:05;10.55;51.21
70089;HTU21D;57460;47.134;19.888;2023-11-18T12:23:31;10.33;52.34
70089;HTU21D;57460;47.134;19.888;2023-11-18T12:25:59;10.43;52.53
70089;HTU21D;57460;47.134;19.888;2023-11-18T12:28:30;10.45;52.36
70089;HTU21D;57460;47.134;19.888;2023-11-18T12:31:03;10.29;53.04
70089;HTU21D;57460;47.134;19.888;2023-11-18T12:39:20;10.43;52.62
70089;HTU21D;57460;47.134;19.888;2023-11-18T12:42:07;10.50;52.43
70089;HTU21D;57460;47.134;19.888;2023-11-18T12:47:36;10.33;52.90
70089;HTU21D;57460;47.134;19.888;2023-11-18T12:50:09;10.53;51.87
70089;HTU21D;57460;47.134;19.888;2023-11-18T12:52:44;10.31;52.61
70089;HTU21D;57460;47.134;19.888;2023-11-18T12:55:13;10.45;51.91
70089;HTU21D;57460;47.134;19.888;2023-11-18T12:57:47;10.50;51.75
70089;HTU21D;57460;47.134;19.888;2023-11-18T13:00:17;10.41;51.88
70089;HTU21D;57460;47.134;19.888;2023-11-18T13:02:58;10.41;51.91
70089;HTU21D;57460;47.134;19.888;2023-11-18T13:05:24;10.45;52.23
70089;HTU21D;57460;47.134;19.888;2023-11-18T13:07:56;10.43;51.98
70089;HTU21D;57460;47.134;19.888;2023-11-18T13:10:29;10.60;51.75
70089;HTU21D;57460;47.134;19.888;2023-11-18T13:12:59;10.60;51.96
70089;HTU21D;57460;47.134;19.888;2023-11-18T13:15:26;10.41;52.83
70089;HTU21D;57460;47.134;19.888;2023-11-18T13:18:02;10.54;52.11
70089;HTU21D;57460;47.134;19.888;2023-11-18T13:20:32;10.75;50.98
70089;HTU21D;57460;47.134;19.888;2023-11-18T13:23:04;10.72;51.33
70089;HTU21D;57460;47.134;19.888;2023-11-18T13:25:36;10.67;51.56
70089;HTU21D;57460;47.134;19.888;2023-11-18T13:28:07;10.73;50.65
70089;HTU21D;57460;47.134;19.888;2023-11-18T13:30:37;10.60;50.68
70089;HTU21D;57460;47.134;19.888;2023-11-18T13:33:04;10.40;51.24
70089;HTU21D;57460;47.134;19.888;2023-11-18T13:35:35;10.43;51.58
70089;HTU21D;57460;47.134;19.888;2023-11-18T13:38:04;10.48;50.49
70089;HTU21D;57460;47.134;19.888;2023-11-18T13:40:43;10.46;50.27
70089;HTU21D;57460;47.134;19.888;2023-11-18T13:43:09;10.15;51.77
70089;HTU21D;57460;47.134;19.888;2023-11-18T13:45:35;10.08;51.80
70089;HTU21D;57460;47.134;19.888;2023-11-18T13:48:02;10.00;52.33
70089;HTU21D;57460;47.134;19.888;2023-11-18T13:50:27;10.01;52.24
70089;HTU21D;57460;47.134;19.888;2023-11-18T13:52:57;9.90;52.75
70089;HTU21D;57460;47.134;19.888;2023-11-18T13:55:24;9.79;53.01
70089;HTU21D;57460;47.134;19.888;2023-11-18T13:57:54;9.85;52.83
70089;HTU21D;57460;47.134;19.888;2023-11-18T14:00:26;9.84;52.68
70089;HTU21D;57460;47.134;19.888;2023-11-18T14:02:56;9.64;53.10
70089;HTU21D;57460;47.134;19.888;2023-11-18T14:05:23;9.75;52.44
70089;HTU21D;57460;47.134;19.888;2023-11-18T14:07:53;9.69;52.89
70089;HTU21D;57460;47.134;19.888;2023-11-18T14:10:25;9.75;52.40
70089;HTU21D;57460;47.134;19.888;2023-11-18T14:13:09;9.63;53.06
70089;HTU21D;57460;47.134;19.888;2023-11-18T14:15:40;9.55;53.31
70089;HTU21D;57460;47.134;19.888;2023-11-18T14:18:11;9.56;53.11
70089;HTU21D;57460;47.134;19.888;2023-11-18T14:20:38;9.61;52.92
70089;HTU21D;57460;47.134;19.888;2023-11-18T14:23:06;9.49;53.27
70089;HTU21D;57460;47.134;19.888;2023-11-18T14:25:34;9.59;53.14
70089;HTU21D;57460;47.134;19.888;2023-11-18T14:28:00;9.39;53.58
70089;HTU21D;57460;47.134;19.888;2023-11-18T14:30:30;9.49;53.18
70089;HTU21D;57460;47.134;19.888;2023-11-18T14:32:56;9.56;52.70
70089;HTU21D;57460;47.134;19.888;2023-11-18T14:35:22;9.52;52.75
70089;HTU21D;57460;47.134;19.888;2023-11-18T14:37:48;9.36;53.15
70089;HTU21D;57460;47.134;19.888;2023-11-18T14:40:15;9.33;53.47
70089;HTU21D;57460;47.134;19.888;2023-11-18T14:42:46;9.31;53.32
70089;HTU21D;57460;47.134;19.888;2023-11-18T14:45:14;9.22;53.66
70089;HTU21D;57460;47.134;19.888;2023-11-18T14:47:41;9.03;54.38
70089;HTU21D;57460;47.134;19.888;2023-11-18T14:50:07;9.20;53.73
70089;HTU21D;57460;47.134;19.888;2023-11-18T14:52:46;9.14;53.88
70089;HTU21D;57460;47.134;19.888;2023-11-18T14:55:13;9.15;53.58
70089;HTU21D;57460;47.134;19.888;2023-11-18T14:57:40;9.12;53.70
70089;HTU21D;57460;47.134;19.888;2023-11-18T15:00:07;9.07;53.86
70089;HTU21D;57460;47.134;19.888;2023-11-18T15:02:37;8.96;54.30
70089;HTU21D;57460;47.134;19.888;2023-11-18T15:05:06;8.83;54.03
70089;HTU21D;57460;47.134;19.888;2023-11-18T15:07:31;8.77;54.53
70089;HTU21D;57460;47.134;19.888;2023-11-18T15:09:57;8.75;54.83
70089;HTU21D;57460;47.134;19.888;2023-11-18T15:12:23;8.76;54.59
70089;HTU21D;57460;47.134;19.888;2023-11-18T15:14:49;8.80;54.19
70089;HTU21D;57460;47.134;19.888;2023-11-18T15:17:14;8.65;54.96
70089;HTU21D;57460;47.134;19.888;2023-11-18T15:19:40;8.50;55.01
70089;HTU21D;57460;47.134;19.888;2023-11-18T15:22:06;8.63;55.05
70089;HTU21D;57460;47.134;19.888;2023-11-18T15:24:31;8.67;54.52
70089;HTU21D;57460;47.134;19.888;2023-11-18T15:27:00;8.51;55.38
70089;HTU21D;57460;47.134;19.888;2023-11-18T15:29:29;8.62;54.78
70089;HTU21D;57460;47.134;19.888;2023-11-18T15:32:03;8.48;55.27
70089;HTU21D;57460;47.134;19.888;2023-11-18T15:34:29;8.32;55.39
70089;HTU21D;57460;47.134;19.888;2023-11-18T15:36:54;8.29;55.71
70089;HTU21D;57460;47.134;19.888;2023-11-18T15:39:20;8.49;54.95
70089;HTU21D;57460;47.134;19.888;2023-11-18T15:41:46;8.30;55.35
70089;HTU21D;57460;47.134;19.888;2023-11-18T15:44:13;8.46;55.04
70089;HTU21D;57460;47.134;19.888;2023-11-18T15:46:38;8.33;55.36
70089;HTU21D;57460;47.134;19.888;2023-11-18T15:49:04;8.39;55.04